sensor_id;sensor_type;location;lat;lon;timestamp;P1;durP1;ratioP1;P2;durP2;ratioP2
68300;SDS011;55146;47.468;18.806;2023-03-05T00:01:19;14.27;;;7.15;;
68300;SDS011;55146;47.468;18.806;2023-03-05T00:03:49;16.52;;;8.73;;
68300;SDS011;55146;47.468;18.806;2023-03-05T00:06:18;17.40;;;8.37;;
68300;SDS011;55146;47.468;18.806;2023-03-05T00:08:47;16.33;;;7.90;;
68300;SDS011;55146;47.468;18.806;2023-03-05T00:11:13;16.55;;;9.32;;
68300;SDS011;55146;47.468;18.806;2023-03-05T00:13:39;18.33;;;10.57;;
68300;SDS011;55146;47.468;18.806;2023-03-05T00:16:05;14.30;;;8.50;;
68300;SDS011;55146;47.468;18.806;2023-03-05T00:18:32;14.40;;;8.57;;
68300;SDS011;55146;47.468;18.806;2023-03-05T00:20:58;15.30;;;7.70;;
68300;SDS011;55146;47.468;18.806;2023-03-05T00:23:23;17.33;;;8.50;;
68300;SDS011;55146;47.468;18.806;2023-03-05T00:25:49;16.12;;;8.77;;
68300;SDS011;55146;47.468;18.806;2023-03-05T00:28:15;17.50;;;8.20;;
68300;SDS011;55146;47.468;18.806;2023-03-05T00:30:40;17.33;;;8.57;;
68300;SDS011;55146;47.468;18.806;2023-03-05T00:33:06;15.68;;;8.45;;
68300;SDS011;55146;47.468;18.806;2023-03-05T00:35:37;16.17;;;9.53;;
68300;SDS011;55146;47.468;18.806;2023-03-05T00:38:12;22.65;;;9.70;;
68300;SDS011;55146;47.468;18.806;2023-03-05T00:40:38;17.95;;;9.90;;
68300;SDS011;55146;47.468;18.806;2023-03-05T00:43:05;15.85;;;9.70;;
68300;SDS011;55146;47.468;18.806;2023-03-05T00:45:31;17.83;;;9.33;;
68300;SDS011;55146;47.468;18.806;2023-03-05T00:47:57;18.70;;;9.20;;
68300;SDS011;55146;47.468;18.806;2023-03-05T00:50:22;18.60;;;11.00;;
68300;SDS011;55146;47.468;18.806;2023-03-05T00:52:48;18.40;;;9.48;;
68300;SDS011;55146;47.468;18.806;2023-03-05T00:55:13;20.83;;;10.20;;
68300;SDS011;55146;47.468;18.806;2023-03-05T00:57:39;18.97;;;9.83;;
68300;SDS011;55146;47.468;18.806;2023-03-05T01:00:05;18.27;;;10.57;;
68300;SDS011;55146;47.468;18.806;2023-03-05T01:02:31;15.95;;;9.13;;
68300;SDS011;55146;47.468;18.806;2023-03-05T01:04:56;17.63;;;9.47;;
68300;SDS011;55146;47.468;18.806;2023-03-05T01:07:22;18.17;;;9.05;;
68300;SDS011;55146;47.468;18.806;2023-03-05T01:09:47;17.07;;;9.07;;
68300;SDS011;55146;47.468;18.806;2023-03-05T01:12:12;18.47;;;9.23;;
68300;SDS011;55146;47.468;18.806;2023-03-05T01:14:38;16.77;;;8.80;;
68300;SDS011;55146;47.468;18.806;2023-03-05T01:17:03;17.10;;;9.90;;
68300;SDS011;55146;47.468;18.806;2023-03-05T01:19:28;15.53;;;8.80;;
68300;SDS011;55146;47.468;18.806;2023-03-05T01:21:54;17.50;;;9.50;;
68300;SDS011;55146;47.468;18.806;2023-03-05T01:24:20;15.63;;;8.32;;
68300;SDS011;55146;47.468;18.806;2023-03-05T01:26:45;18.00;;;9.03;;
68300;SDS011;55146;47.468;18.806;2023-03-05T01:29:11;15.45;;;8.80;;
68300;SDS011;55146;47.468;18.806;2023-03-05T01:31:36;18.53;;;9.50;;
68300;SDS011;55146;47.468;18.806;2023-03-05T01:34:02;17.30;;;8.77;;
68300;SDS011;55146;47.468;18.806;2023-03-05T01:36:27;19.50;;;9.15;;
68300;SDS011;55146;47.468;18.806;2023-03-05T01:38:53;16.77;;;9.87;;
68300;SDS011;55146;47.468;18.806;2023-03-05T01:41:18;17.60;;;8.87;;
68300;SDS011;55146;47.468;18.806;2023-03-05T01:43:45;16.52;;;8.82;;
68300;SDS011;55146;47.468;18.806;2023-03-05T01:48:48;16.30;;;8.57;;
68300;SDS011;55146;47.468;18.806;2023-03-05T01:51:17;16.65;;;8.25;;
68300;SDS011;55146;47.468;18.806;2023-03-05T01:53:44;18.83;;;8.85;;
68300;SDS011;55146;47.468;18.806;2023-03-05T01:56:10;16.62;;;9.25;;
68300;SDS011;55146;47.468;18.806;2023-03-05T01:58:36;17.97;;;9.20;;
68300;SDS011;55146;47.468;18.806;2023-03-05T02:01:04;16.30;;;8.75;;
68300;SDS011;55146;47.468;18.806;2023-03-05T02:03:29;15.68;;;7.97;;
68300;SDS011;55146;47.468;18.806;2023-03-05T02:05:56;21.25;;;9.50;;
68300;SDS011;55146;47.468;18.806;2023-03-05T02:08:21;17.57;;;8.47;;
68300;SDS011;55146;47.468;18.806;2023-03-05T02:10:48;16.57;;;8.33;;
68300;SDS011;55146;47.468;18.806;2023-03-05T02:13:22;19.23;;;10.00;;
68300;SDS011;55146;47.468;18.806;2023-03-05T02:15:49;18.52;;;9.23;;
68300;SDS011;55146;47.468;18.806;2023-03-05T02:18:17;20.12;;;9.50;;
68300;SDS011;55146;47.468;18.806;2023-03-05T02:20:45;18.63;;;9.40;;
68300;SDS011;55146;47.468;18.806;2023-03-05T02:23:13;16.37;;;9.05;;
68300;SDS011;55146;47.468;18.806;2023-03-05T02:25:39;18.25;;;9.85;;
68300;SDS011;55146;47.468;18.806;2023-03-05T02:28:07;19.47;;;10.43;;
68300;SDS011;55146;47.468;18.806;2023-03-05T02:30:38;18.12;;;9.80;;
68300;SDS011;55146;47.468;18.806;2023-03-05T02:33:04;20.43;;;10.33;;
68300;SDS011;55146;47.468;18.806;2023-03-05T02:35:29;17.70;;;9.83;;
68300;SDS011;55146;47.468;18.806;2023-03-05T02:37:55;17.30;;;8.65;;
68300;SDS011;55146;47.468;18.806;2023-03-05T02:40:20;19.90;;;9.63;;
68300;SDS011;55146;47.468;18.806;2023-03-05T02:42:46;19.83;;;9.43;;
68300;SDS011;55146;47.468;18.806;2023-03-05T02:45:11;16.73;;;9.30;;
68300;SDS011;55146;47.468;18.806;2023-03-05T02:47:37;19.98;;;8.40;;
68300;SDS011;55146;47.468;18.806;2023-03-05T02:50:03;20.07;;;9.70;;
68300;SDS011;55146;47.468;18.806;2023-03-05T02:52:29;22.17;;;11.20;;
68300;SDS011;55146;47.468;18.806;2023-03-05T02:54:55;17.50;;;9.13;;
68300;SDS011;55146;47.468;18.806;2023-03-05T02:57:20;17.20;;;8.40;;
68300;SDS011;55146;47.468;18.806;2023-03-05T02:59:46;17.20;;;9.03;;
68300;SDS011;55146;47.468;18.806;2023-03-05T03:02:11;19.53;;;9.03;;
68300;SDS011;55146;47.468;18.806;2023-03-05T03:04:38;17.55;;;9.45;;
68300;SDS011;55146;47.468;18.806;2023-03-05T03:07:03;20.30;;;8.75;;
68300;SDS011;55146;47.468;18.806;2023-03-05T03:09:29;16.50;;;8.40;;
68300;SDS011;55146;47.468;18.806;2023-03-05T03:11:54;19.33;;;9.60;;
68300;SDS011;55146;47.468;18.806;2023-03-05T03:14:20;23.10;;;9.30;;
68300;SDS011;55146;47.468;18.806;2023-03-05T03:16:46;19.12;;;9.27;;
68300;SDS011;55146;47.468;18.806;2023-03-05T03:19:11;16.75;;;9.40;;
68300;SDS011;55146;47.468;18.806;2023-03-05T03:21:37;16.57;;;8.73;;
68300;SDS011;55146;47.468;18.806;2023-03-05T03:24:02;17.50;;;8.37;;
68300;SDS011;55146;47.468;18.806;2023-03-05T03:26:28;16.10;;;9.48;;
68300;SDS011;55146;47.468;18.806;2023-03-05T03:28:54;18.67;;;9.48;;
68300;SDS011;55146;47.468;18.806;2023-03-05T03:31:19;18.70;;;8.73;;
68300;SDS011;55146;47.468;18.806;2023-03-05T03:33:45;21.03;;;9.70;;
68300;SDS011;55146;47.468;18.806;2023-03-05T03:36:10;19.53;;;9.37;;
68300;SDS011;55146;47.468;18.806;2023-03-05T03:38:36;16.98;;;9.70;;
68300;SDS011;55146;47.468;18.806;2023-03-05T03:41:04;25.33;;;9.60;;
68300;SDS011;55146;47.468;18.806;2023-03-05T03:43:30;20.10;;;8.98;;
68300;SDS011;55146;47.468;18.806;2023-03-05T03:45:56;16.80;;;7.93;;
68300;SDS011;55146;47.468;18.806;2023-03-05T03:48:21;21.43;;;10.27;;
68300;SDS011;55146;47.468;18.806;2023-03-05T03:50:46;20.88;;;9.25;;
68300;SDS011;55146;47.468;18.806;2023-03-05T03:53:12;18.60;;;9.67;;
68300;SDS011;55146;47.468;18.806;2023-03-05T03:55:38;19.92;;;10.65;;
68300;SDS011;55146;47.468;18.806;2023-03-05T03:58:04;17.73;;;10.07;;
68300;SDS011;55146;47.468;18.806;2023-03-05T04:00:30;18.42;;;9.38;;
68300;SDS011;55146;47.468;18.806;2023-03-05T04:02:55;21.63;;;9.30;;
68300;SDS011;55146;47.468;18.806;2023-03-05T04:05:21;18.63;;;9.83;;
68300;SDS011;55146;47.468;18.806;2023-03-05T04:07:46;17.93;;;8.83;;
68300;SDS011;55146;47.468;18.806;2023-03-05T04:10:11;21.37;;;8.97;;
68300;SDS011;55146;47.468;18.806;2023-03-05T04:12:37;15.68;;;8.43;;
68300;SDS011;55146;47.468;18.806;2023-03-05T04:15:03;17.60;;;8.63;;
68300;SDS011;55146;47.468;18.806;2023-03-05T04:17:32;16.62;;;9.00;;
68300;SDS011;55146;47.468;18.806;2023-03-05T04:19:57;19.70;;;9.00;;
68300;SDS011;55146;47.468;18.806;2023-03-05T04:22:22;17.33;;;9.15;;
68300;SDS011;55146;47.468;18.806;2023-03-05T04:24:48;17.43;;;9.10;;
68300;SDS011;55146;47.468;18.806;2023-03-05T04:27:13;15.73;;;8.63;;
68300;SDS011;55146;47.468;18.806;2023-03-05T04:29:39;16.80;;;9.47;;
68300;SDS011;55146;47.468;18.806;2023-03-05T04:32:04;19.63;;;8.33;;
68300;SDS011;55146;47.468;18.806;2023-03-05T04:34:30;18.70;;;8.97;;
68300;SDS011;55146;47.468;18.806;2023-03-05T04:36:57;19.00;;;10.20;;
68300;SDS011;55146;47.468;18.806;2023-03-05T04:39:22;18.58;;;10.70;;
68300;SDS011;55146;47.468;18.806;2023-03-05T04:41:47;14.77;;;7.47;;
68300;SDS011;55146;47.468;18.806;2023-03-05T04:44:13;17.23;;;8.07;;
68300;SDS011;55146;47.468;18.806;2023-03-05T04:46:38;15.90;;;9.17;;
68300;SDS011;55146;47.468;18.806;2023-03-05T04:49:04;16.23;;;8.88;;
68300;SDS011;55146;47.468;18.806;2023-03-05T04:51:29;16.40;;;8.70;;
68300;SDS011;55146;47.468;18.806;2023-03-05T04:53:55;19.60;;;8.43;;
68300;SDS011;55146;47.468;18.806;2023-03-05T04:56:20;18.07;;;8.70;;
68300;SDS011;55146;47.468;18.806;2023-03-05T04:58:46;16.67;;;9.32;;
68300;SDS011;55146;47.468;18.806;2023-03-05T05:01:11;17.20;;;9.03;;
68300;SDS011;55146;47.468;18.806;2023-03-05T05:03:37;17.13;;;10.13;;
68300;SDS011;55146;47.468;18.806;2023-03-05T05:06:02;17.30;;;9.43;;
68300;SDS011;55146;47.468;18.806;2023-03-05T05:08:28;20.17;;;9.40;;
68300;SDS011;55146;47.468;18.806;2023-03-05T05:10:57;15.98;;;9.18;;
68300;SDS011;55146;47.468;18.806;2023-03-05T05:13:28;16.25;;;8.70;;
68300;SDS011;55146;47.468;18.806;2023-03-05T05:15:54;16.00;;;8.60;;
68300;SDS011;55146;47.468;18.806;2023-03-05T05:18:20;16.58;;;9.02;;
68300;SDS011;55146;47.468;18.806;2023-03-05T05:20:45;16.00;;;8.80;;
68300;SDS011;55146;47.468;18.806;2023-03-05T05:23:11;16.10;;;9.32;;
68300;SDS011;55146;47.468;18.806;2023-03-05T05:25:36;16.77;;;9.40;;
68300;SDS011;55146;47.468;18.806;2023-03-05T05:28:02;18.37;;;8.47;;
68300;SDS011;55146;47.468;18.806;2023-03-05T05:30:28;18.90;;;8.85;;
68300;SDS011;55146;47.468;18.806;2023-03-05T05:32:53;19.70;;;10.30;;
68300;SDS011;55146;47.468;18.806;2023-03-05T05:35:18;18.70;;;9.97;;
68300;SDS011;55146;47.468;18.806;2023-03-05T05:37:44;18.60;;;10.67;;
68300;SDS011;55146;47.468;18.806;2023-03-05T05:40:09;23.43;;;11.67;;
68300;SDS011;55146;47.468;18.806;2023-03-05T05:42:35;22.83;;;9.68;;
68300;SDS011;55146;47.468;18.806;2023-03-05T05:45:00;22.50;;;10.43;;
68300;SDS011;55146;47.468;18.806;2023-03-05T05:47:27;24.75;;;10.18;;
68300;SDS011;55146;47.468;18.806;2023-03-05T05:49:53;19.80;;;9.98;;
68300;SDS011;55146;47.468;18.806;2023-03-05T05:52:19;21.80;;;10.50;;
68300;SDS011;55146;47.468;18.806;2023-03-05T05:54:45;20.07;;;10.33;;
68300;SDS011;55146;47.468;18.806;2023-03-05T05:57:10;18.53;;;9.93;;
68300;SDS011;55146;47.468;18.806;2023-03-05T05:59:35;17.58;;;10.55;;
68300;SDS011;55146;47.468;18.806;2023-03-05T06:02:02;19.33;;;9.87;;
68300;SDS011;55146;47.468;18.806;2023-03-05T06:04:27;18.67;;;9.60;;
68300;SDS011;55146;47.468;18.806;2023-03-05T06:06:53;15.13;;;8.33;;
68300;SDS011;55146;47.468;18.806;2023-03-05T06:09:18;20.60;;;9.20;;
68300;SDS011;55146;47.468;18.806;2023-03-05T06:11:44;18.83;;;9.38;;
68300;SDS011;55146;47.468;18.806;2023-03-05T06:14:10;22.30;;;8.43;;
68300;SDS011;55146;47.468;18.806;2023-03-05T06:16:36;16.75;;;9.23;;
68300;SDS011;55146;47.468;18.806;2023-03-05T06:19:02;18.40;;;9.53;;
68300;SDS011;55146;47.468;18.806;2023-03-05T06:21:28;21.05;;;9.52;;
68300;SDS011;55146;47.468;18.806;2023-03-05T06:23:54;16.10;;;8.87;;
68300;SDS011;55146;47.468;18.806;2023-03-05T06:26:20;21.10;;;9.75;;
68300;SDS011;55146;47.468;18.806;2023-03-05T06:28:47;17.98;;;8.93;;
68300;SDS011;55146;47.468;18.806;2023-03-05T06:31:14;17.70;;;8.80;;
68300;SDS011;55146;47.468;18.806;2023-03-05T06:33:41;20.00;;;10.73;;
68300;SDS011;55146;47.468;18.806;2023-03-05T06:36:08;22.50;;;10.50;;
68300;SDS011;55146;47.468;18.806;2023-03-05T06:38:35;19.73;;;9.77;;
68300;SDS011;55146;47.468;18.806;2023-03-05T06:41:02;20.70;;;10.70;;
68300;SDS011;55146;47.468;18.806;2023-03-05T06:43:33;19.73;;;9.83;;
68300;SDS011;55146;47.468;18.806;2023-03-05T06:46:04;22.48;;;10.40;;
68300;SDS011;55146;47.468;18.806;2023-03-05T06:48:31;23.02;;;11.50;;
68300;SDS011;55146;47.468;18.806;2023-03-05T06:50:57;18.42;;;10.18;;
68300;SDS011;55146;47.468;18.806;2023-03-05T06:53:23;21.93;;;10.50;;
68300;SDS011;55146;47.468;18.806;2023-03-05T06:55:50;19.40;;;9.70;;
68300;SDS011;55146;47.468;18.806;2023-03-05T06:58:16;18.77;;;10.60;;
68300;SDS011;55146;47.468;18.806;2023-03-05T07:00:42;23.17;;;10.13;;
68300;SDS011;55146;47.468;18.806;2023-03-05T07:03:08;21.85;;;9.95;;
68300;SDS011;55146;47.468;18.806;2023-03-05T07:05:36;21.67;;;9.03;;
68300;SDS011;55146;47.468;18.806;2023-03-05T07:08:02;21.87;;;10.10;;
68300;SDS011;55146;47.468;18.806;2023-03-05T07:10:28;22.20;;;11.07;;
68300;SDS011;55146;47.468;18.806;2023-03-05T07:12:53;22.40;;;10.17;;
68300;SDS011;55146;47.468;18.806;2023-03-05T07:15:18;22.63;;;10.47;;
68300;SDS011;55146;47.468;18.806;2023-03-05T07:17:44;21.60;;;10.18;;
68300;SDS011;55146;47.468;18.806;2023-03-05T07:20:09;20.23;;;10.27;;
68300;SDS011;55146;47.468;18.806;2023-03-05T07:22:36;18.02;;;9.95;;
68300;SDS011;55146;47.468;18.806;2023-03-05T07:25:02;21.60;;;10.67;;
68300;SDS011;55146;47.468;18.806;2023-03-05T07:27:27;20.98;;;9.75;;
68300;SDS011;55146;47.468;18.806;2023-03-05T07:29:53;20.70;;;10.33;;
68300;SDS011;55146;47.468;18.806;2023-03-05T07:32:18;21.20;;;10.67;;
68300;SDS011;55146;47.468;18.806;2023-03-05T07:34:43;19.77;;;10.15;;
68300;SDS011;55146;47.468;18.806;2023-03-05T07:37:09;20.93;;;11.30;;
68300;SDS011;55146;47.468;18.806;2023-03-05T07:39:34;18.33;;;10.47;;
68300;SDS011;55146;47.468;18.806;2023-03-05T07:42:00;22.20;;;10.90;;
68300;SDS011;55146;47.468;18.806;2023-03-05T07:44:25;18.50;;;9.83;;
68300;SDS011;55146;47.468;18.806;2023-03-05T07:46:50;20.67;;;10.80;;
68300;SDS011;55146;47.468;18.806;2023-03-05T07:49:16;22.37;;;10.98;;
68300;SDS011;55146;47.468;18.806;2023-03-05T07:51:41;22.27;;;11.17;;
68300;SDS011;55146;47.468;18.806;2023-03-05T07:54:06;25.40;;;11.00;;
68300;SDS011;55146;47.468;18.806;2023-03-05T07:56:33;17.93;;;9.60;;
68300;SDS011;55146;47.468;18.806;2023-03-05T07:59:03;22.58;;;10.93;;
68300;SDS011;55146;47.468;18.806;2023-03-05T08:01:31;19.27;;;11.12;;
68300;SDS011;55146;47.468;18.806;2023-03-05T08:03:57;18.77;;;10.93;;
68300;SDS011;55146;47.468;18.806;2023-03-05T08:06:23;19.27;;;10.80;;
68300;SDS011;55146;47.468;18.806;2023-03-05T08:08:49;20.33;;;11.10;;
68300;SDS011;55146;47.468;18.806;2023-03-05T08:11:15;21.45;;;10.48;;
68300;SDS011;55146;47.468;18.806;2023-03-05T08:13:41;21.30;;;10.80;;
68300;SDS011;55146;47.468;18.806;2023-03-05T08:16:09;19.42;;;10.20;;
68300;SDS011;55146;47.468;18.806;2023-03-05T08:18:37;18.85;;;10.68;;
68300;SDS011;55146;47.468;18.806;2023-03-05T08:21:03;19.43;;;10.70;;
68300;SDS011;55146;47.468;18.806;2023-03-05T08:23:29;20.83;;;9.50;;
68300;SDS011;55146;47.468;18.806;2023-03-05T08:25:55;19.00;;;9.45;;
68300;SDS011;55146;47.468;18.806;2023-03-05T08:28:20;27.90;;;13.57;;
68300;SDS011;55146;47.468;18.806;2023-03-05T08:30:46;23.03;;;11.70;;
68300;SDS011;55146;47.468;18.806;2023-03-05T08:33:12;22.15;;;11.30;;
68300;SDS011;55146;47.468;18.806;2023-03-05T08:35:39;20.20;;;11.60;;
68300;SDS011;55146;47.468;18.806;2023-03-05T08:38:04;20.50;;;10.70;;
68300;SDS011;55146;47.468;18.806;2023-03-05T08:40:30;21.40;;;10.40;;
68300;SDS011;55146;47.468;18.806;2023-03-05T08:42:56;18.67;;;10.50;;
68300;SDS011;55146;47.468;18.806;2023-03-05T08:45:21;22.95;;;10.98;;
68300;SDS011;55146;47.468;18.806;2023-03-05T08:47:47;23.37;;;11.20;;
68300;SDS011;55146;47.468;18.806;2023-03-05T08:50:13;20.27;;;10.60;;
68300;SDS011;55146;47.468;18.806;2023-03-05T08:52:39;22.93;;;11.00;;
68300;SDS011;55146;47.468;18.806;2023-03-05T08:55:04;22.33;;;11.10;;
68300;SDS011;55146;47.468;18.806;2023-03-05T08:57:30;19.52;;;11.07;;
68300;SDS011;55146;47.468;18.806;2023-03-05T08:59:55;21.40;;;10.43;;
68300;SDS011;55146;47.468;18.806;2023-03-05T09:02:20;19.67;;;10.17;;
68300;SDS011;55146;47.468;18.806;2023-03-05T09:04:46;19.33;;;10.40;;
68300;SDS011;55146;47.468;18.806;2023-03-05T09:07:11;22.80;;;11.23;;
68300;SDS011;55146;47.468;18.806;2023-03-05T09:09:37;19.42;;;10.88;;
68300;SDS011;55146;47.468;18.806;2023-03-05T09:12:03;16.27;;;7.83;;
68300;SDS011;55146;47.468;18.806;2023-03-05T09:14:28;17.83;;;10.13;;
68300;SDS011;55146;47.468;18.806;2023-03-05T09:16:54;20.03;;;9.97;;
68300;SDS011;55146;47.468;18.806;2023-03-05T09:19:20;19.12;;;10.50;;
68300;SDS011;55146;47.468;18.806;2023-03-05T09:21:46;16.10;;;9.67;;
68300;SDS011;55146;47.468;18.806;2023-03-05T09:24:11;19.73;;;10.60;;
68300;SDS011;55146;47.468;18.806;2023-03-05T09:26:37;18.50;;;9.85;;
68300;SDS011;55146;47.468;18.806;2023-03-05T09:29:03;19.27;;;10.85;;
68300;SDS011;55146;47.468;18.806;2023-03-05T09:31:30;19.30;;;9.67;;
68300;SDS011;55146;47.468;18.806;2023-03-05T09:33:56;19.58;;;10.05;;
68300;SDS011;55146;47.468;18.806;2023-03-05T09:36:22;20.13;;;9.57;;
68300;SDS011;55146;47.468;18.806;2023-03-05T09:38:50;19.80;;;10.25;;
68300;SDS011;55146;47.468;18.806;2023-03-05T09:56:25;19.62;;;10.18;;
68300;SDS011;55146;47.468;18.806;2023-03-05T09:59:01;17.55;;;9.95;;
68300;SDS011;55146;47.468;18.806;2023-03-05T10:01:36;17.77;;;9.55;;
68300;SDS011;55146;47.468;18.806;2023-03-05T10:04:20;18.35;;;9.88;;
68300;SDS011;55146;47.468;18.806;2023-03-05T10:07:00;19.50;;;11.17;;
68300;SDS011;55146;47.468;18.806;2023-03-05T10:14:51;22.23;;;11.05;;
68300;SDS011;55146;47.468;18.806;2023-03-05T10:28:04;17.30;;;10.52;;
68300;SDS011;55146;47.468;18.806;2023-03-05T10:38:59;15.68;;;8.85;;
68300;SDS011;55146;47.468;18.806;2023-03-05T10:44:25;13.45;;;8.60;;
68300;SDS011;55146;47.468;18.806;2023-03-05T10:49:55;16.17;;;8.57;;
68300;SDS011;55146;47.468;18.806;2023-03-05T10:52:30;16.70;;;8.75;;
68300;SDS011;55146;47.468;18.806;2023-03-05T10:54:59;15.85;;;9.32;;
68300;SDS011;55146;47.468;18.806;2023-03-05T10:57:25;18.10;;;9.60;;
68300;SDS011;55146;47.468;18.806;2023-03-05T10:59:53;17.35;;;10.07;;
68300;SDS011;55146;47.468;18.806;2023-03-05T11:02:22;16.40;;;11.50;;
68300;SDS011;55146;47.468;18.806;2023-03-05T11:04:49;21.10;;;14.40;;
68300;SDS011;55146;47.468;18.806;2023-03-05T11:12:28;16.77;;;10.10;;
68300;SDS011;55146;47.468;18.806;2023-03-05T11:15:09;16.20;;;10.88;;
68300;SDS011;55146;47.468;18.806;2023-03-05T11:20:48;17.02;;;9.45;;
68300;SDS011;55146;47.468;18.806;2023-03-05T11:25:51;17.52;;;12.27;;
68300;SDS011;55146;47.468;18.806;2023-03-05T11:28:17;14.75;;;9.10;;
68300;SDS011;55146;47.468;18.806;2023-03-05T11:30:53;15.77;;;9.02;;
68300;SDS011;55146;47.468;18.806;2023-03-05T11:33:21;15.32;;;8.23;;
68300;SDS011;55146;47.468;18.806;2023-03-05T11:35:47;13.93;;;8.47;;
68300;SDS011;55146;47.468;18.806;2023-03-05T11:38:20;13.10;;;7.97;;
68300;SDS011;55146;47.468;18.806;2023-03-05T11:40:49;12.13;;;8.05;;
68300;SDS011;55146;47.468;18.806;2023-03-05T11:43:18;13.70;;;8.27;;
68300;SDS011;55146;47.468;18.806;2023-03-05T11:45:46;37.38;;;18.02;;
68300;SDS011;55146;47.468;18.806;2023-03-05T11:48:23;50.10;;;29.27;;
68300;SDS011;55146;47.468;18.806;2023-03-05T11:51:04;44.25;;;23.08;;
68300;SDS011;55146;47.468;18.806;2023-03-05T11:53:37;17.12;;;10.60;;
68300;SDS011;55146;47.468;18.806;2023-03-05T11:59:13;11.87;;;7.43;;
68300;SDS011;55146;47.468;18.806;2023-03-05T12:01:50;11.85;;;6.90;;
68300;SDS011;55146;47.468;18.806;2023-03-05T12:04:17;10.55;;;7.20;;
68300;SDS011;55146;47.468;18.806;2023-03-05T12:06:49;12.90;;;7.97;;
68300;SDS011;55146;47.468;18.806;2023-03-05T12:23:20;11.27;;;6.70;;
68300;SDS011;55146;47.468;18.806;2023-03-05T12:25:52;12.33;;;6.10;;
68300;SDS011;55146;47.468;18.806;2023-03-05T12:30:54;11.10;;;6.82;;
68300;SDS011;55146;47.468;18.806;2023-03-05T12:33:40;11.25;;;6.72;;
68300;SDS011;55146;47.468;18.806;2023-03-05T12:38:47;11.27;;;6.70;;
68300;SDS011;55146;47.468;18.806;2023-03-05T12:46:29;14.63;;;6.93;;
68300;SDS011;55146;47.468;18.806;2023-03-05T12:51:44;11.93;;;6.97;;
68300;SDS011;55146;47.468;18.806;2023-03-05T12:57:01;11.70;;;6.47;;
68300;SDS011;55146;47.468;18.806;2023-03-05T12:59:34;12.37;;;6.75;;
68300;SDS011;55146;47.468;18.806;2023-03-05T13:02:27;34.42;;;16.25;;
68300;SDS011;55146;47.468;18.806;2023-03-05T13:05:01;150.83;;;55.27;;
68300;SDS011;55146;47.468;18.806;2023-03-05T13:07:48;103.35;;;34.92;;
68300;SDS011;55146;47.468;18.806;2023-03-05T13:10:26;31.30;;;15.45;;
68300;SDS011;55146;47.468;18.806;2023-03-05T13:12:54;22.13;;;14.95;;
68300;SDS011;55146;47.468;18.806;2023-03-05T13:15:22;12.52;;;8.50;;
68300;SDS011;55146;47.468;18.806;2023-03-05T13:17:56;12.20;;;7.13;;
68300;SDS011;55146;47.468;18.806;2023-03-05T13:20:33;11.65;;;6.53;;
68300;SDS011;55146;47.468;18.806;2023-03-05T13:25:32;14.80;;;7.75;;
68300;SDS011;55146;47.468;18.806;2023-03-05T13:28:03;14.93;;;8.13;;
68300;SDS011;55146;47.468;18.806;2023-03-05T13:30:31;13.57;;;7.97;;
68300;SDS011;55146;47.468;18.806;2023-03-05T13:32:59;13.55;;;8.00;;
68300;SDS011;55146;47.468;18.806;2023-03-05T13:35:32;13.88;;;8.07;;
68300;SDS011;55146;47.468;18.806;2023-03-05T13:37:58;10.77;;;6.03;;
68300;SDS011;55146;47.468;18.806;2023-03-05T13:40:30;10.93;;;6.40;;
68300;SDS011;55146;47.468;18.806;2023-03-05T13:43:09;9.90;;;6.23;;
68300;SDS011;55146;47.468;18.806;2023-03-05T13:45:42;9.65;;;5.85;;
68300;SDS011;55146;47.468;18.806;2023-03-05T13:48:14;11.18;;;6.45;;
68300;SDS011;55146;47.468;18.806;2023-03-05T13:50:45;10.30;;;5.47;;
68300;SDS011;55146;47.468;18.806;2023-03-05T13:53:27;12.52;;;6.20;;
68300;SDS011;55146;47.468;18.806;2023-03-05T13:55:58;10.60;;;6.63;;
68300;SDS011;55146;47.468;18.806;2023-03-05T14:01:28;10.15;;;6.30;;
68300;SDS011;55146;47.468;18.806;2023-03-05T14:09:21;11.43;;;6.33;;
68300;SDS011;55146;47.468;18.806;2023-03-05T14:11:51;11.63;;;6.00;;
68300;SDS011;55146;47.468;18.806;2023-03-05T14:14:18;14.30;;;6.95;;
68300;SDS011;55146;47.468;18.806;2023-03-05T14:16:46;13.13;;;7.57;;
68300;SDS011;55146;47.468;18.806;2023-03-05T14:19:32;14.18;;;7.20;;
68300;SDS011;55146;47.468;18.806;2023-03-05T14:22:00;12.30;;;7.12;;
68300;SDS011;55146;47.468;18.806;2023-03-05T14:24:26;10.32;;;6.05;;
68300;SDS011;55146;47.468;18.806;2023-03-05T14:26:59;8.48;;;4.90;;
68300;SDS011;55146;47.468;18.806;2023-03-05T14:29:31;9.10;;;5.33;;
68300;SDS011;55146;47.468;18.806;2023-03-05T14:32:05;11.98;;;6.22;;
68300;SDS011;55146;47.468;18.806;2023-03-05T14:34:39;11.70;;;5.82;;
68300;SDS011;55146;47.468;18.806;2023-03-05T14:37:13;8.52;;;4.93;;
68300;SDS011;55146;47.468;18.806;2023-03-05T14:40:03;10.07;;;5.53;;
68300;SDS011;55146;47.468;18.806;2023-03-05T14:42:57;10.73;;;6.20;;
68300;SDS011;55146;47.468;18.806;2023-03-05T14:45:26;12.63;;;6.40;;
68300;SDS011;55146;47.468;18.806;2023-03-05T14:47:55;11.35;;;6.20;;
68300;SDS011;55146;47.468;18.806;2023-03-05T14:50:23;11.82;;;7.62;;
68300;SDS011;55146;47.468;18.806;2023-03-05T14:52:53;12.20;;;6.43;;
68300;SDS011;55146;47.468;18.806;2023-03-05T14:55:22;11.87;;;7.20;;
68300;SDS011;55146;47.468;18.806;2023-03-05T14:57:51;8.60;;;4.85;;
68300;SDS011;55146;47.468;18.806;2023-03-05T15:00:23;10.55;;;5.45;;
68300;SDS011;55146;47.468;18.806;2023-03-05T15:02:50;12.48;;;7.60;;
68300;SDS011;55146;47.468;18.806;2023-03-05T15:05:16;10.10;;;6.00;;
68300;SDS011;55146;47.468;18.806;2023-03-05T15:07:44;11.13;;;6.60;;
68300;SDS011;55146;47.468;18.806;2023-03-05T15:10:14;10.52;;;6.00;;
68300;SDS011;55146;47.468;18.806;2023-03-05T15:12:41;11.65;;;6.93;;
68300;SDS011;55146;47.468;18.806;2023-03-05T15:15:07;10.98;;;6.03;;
68300;SDS011;55146;47.468;18.806;2023-03-05T15:17:37;9.98;;;5.85;;
68300;SDS011;55146;47.468;18.806;2023-03-05T15:20:30;11.60;;;6.63;;
68300;SDS011;55146;47.468;18.806;2023-03-05T15:22:56;11.93;;;6.82;;
68300;SDS011;55146;47.468;18.806;2023-03-05T15:25:22;11.68;;;5.65;;
68300;SDS011;55146;47.468;18.806;2023-03-05T15:27:52;12.27;;;6.07;;
68300;SDS011;55146;47.468;18.806;2023-03-05T15:32:48;10.70;;;6.53;;
68300;SDS011;55146;47.468;18.806;2023-03-05T15:35:15;10.10;;;5.80;;
68300;SDS011;55146;47.468;18.806;2023-03-05T15:37:41;11.60;;;6.37;;
68300;SDS011;55146;47.468;18.806;2023-03-05T15:40:07;10.35;;;6.03;;
68300;SDS011;55146;47.468;18.806;2023-03-05T15:42:33;13.17;;;6.60;;
68300;SDS011;55146;47.468;18.806;2023-03-05T15:44:59;10.02;;;5.72;;
68300;SDS011;55146;47.468;18.806;2023-03-05T15:47:25;10.80;;;6.00;;
68300;SDS011;55146;47.468;18.806;2023-03-05T15:49:51;12.07;;;6.00;;
68300;SDS011;55146;47.468;18.806;2023-03-05T15:52:18;10.77;;;6.22;;
68300;SDS011;55146;47.468;18.806;2023-03-05T15:54:43;10.70;;;5.87;;
68300;SDS011;55146;47.468;18.806;2023-03-05T15:57:09;10.38;;;6.40;;
68300;SDS011;55146;47.468;18.806;2023-03-05T15:59:37;9.27;;;5.18;;
68300;SDS011;55146;47.468;18.806;2023-03-05T16:02:04;10.10;;;5.28;;
68300;SDS011;55146;47.468;18.806;2023-03-05T16:04:31;10.37;;;6.53;;
68300;SDS011;55146;47.468;18.806;2023-03-05T16:06:57;11.55;;;6.07;;